sensor_id;sensor_type;location;lat;lon;timestamp;P1;durP1;ratioP1;P2;durP2;ratioP2
14778;SDS011;7481;53.750;10.570;2023-06-26T00:01:11;7.00;;;6.20;;
14778;SDS011;7481;53.750;10.570;2023-06-26T00:05:34;6.03;;;5.50;;
14778;SDS011;7481;53.750;10.570;2023-06-26T00:09:57;7.65;;;6.65;;
14778;SDS011;7481;53.750;10.570;2023-06-26T00:14:20;8.48;;;6.53;;
14778;SDS011;7481;53.750;10.570;2023-06-26T00:18:43;6.93;;;6.10;;
14778;SDS011;7481;53.750;10.570;2023-06-26T00:23:05;7.80;;;7.00;;
14778;SDS011;7481;53.750;10.570;2023-06-26T00:27:28;7.25;;;6.57;;
14778;SDS011;7481;53.750;10.570;2023-06-26T00:31:51;6.88;;;6.20;;
14778;SDS011;7481;53.750;10.570;2023-06-26T00:36:13;7.35;;;6.65;;
14778;SDS011;7481;53.750;10.570;2023-06-26T00:40:36;7.07;;;5.85;;
14778;SDS011;7481;53.750;10.570;2023-06-26T00:44:59;8.32;;;7.50;;
14778;SDS011;7481;53.750;10.570;2023-06-26T00:49:21;9.43;;;8.18;;
14778;SDS011;7481;53.750;10.570;2023-06-26T00:53:44;10.35;;;8.93;;
14778;SDS011;7481;53.750;10.570;2023-06-26T00:58:06;9.38;;;8.48;;
14778;SDS011;7481;53.750;10.570;2023-06-26T01:02:29;10.60;;;8.90;;
14778;SDS011;7481;53.750;10.570;2023-06-26T01:06:55;8.80;;;7.90;;
14778;SDS011;7481;53.750;10.570;2023-06-26T01:11:18;8.60;;;7.80;;
14778;SDS011;7481;53.750;10.570;2023-06-26T01:15:41;9.43;;;8.52;;
14778;SDS011;7481;53.750;10.570;2023-06-26T01:20:04;9.63;;;8.60;;
14778;SDS011;7481;53.750;10.570;2023-06-26T01:24:32;10.27;;;9.27;;
14778;SDS011;7481;53.750;10.570;2023-06-26T01:28:56;10.60;;;9.52;;
14778;SDS011;7481;53.750;10.570;2023-06-26T01:33:19;10.27;;;9.13;;
14778;SDS011;7481;53.750;10.570;2023-06-26T01:37:41;10.50;;;9.40;;
14778;SDS011;7481;53.750;10.570;2023-06-26T01:42:03;11.98;;;9.88;;
14778;SDS011;7481;53.750;10.570;2023-06-26T01:50:58;10.57;;;9.48;;
14778;SDS011;7481;53.750;10.570;2023-06-26T01:55:24;10.65;;;8.82;;
14778;SDS011;7481;53.750;10.570;2023-06-26T01:59:50;11.95;;;9.65;;
14778;SDS011;7481;53.750;10.570;2023-06-26T02:04:14;10.68;;;9.57;;
14778;SDS011;7481;53.750;10.570;2023-06-26T02:08:36;10.65;;;9.55;;
14778;SDS011;7481;53.750;10.570;2023-06-26T02:12:58;10.07;;;9.02;;
14778;SDS011;7481;53.750;10.570;2023-06-26T02:17:21;13.63;;;10.25;;
14778;SDS011;7481;53.750;10.570;2023-06-26T02:21:43;10.93;;;9.15;;
14778;SDS011;7481;53.750;10.570;2023-06-26T02:26:06;9.93;;;8.93;;
14778;SDS011;7481;53.750;10.570;2023-06-26T02:30:28;10.43;;;9.38;;
14778;SDS011;7481;53.750;10.570;2023-06-26T02:34:51;10.40;;;9.05;;
14778;SDS011;7481;53.750;10.570;2023-06-26T02:39:13;10.70;;;9.60;;
14778;SDS011;7481;53.750;10.570;2023-06-26T02:43:36;10.07;;;9.18;;
14778;SDS011;7481;53.750;10.570;2023-06-26T02:47:58;11.45;;;9.18;;
14778;SDS011;7481;53.750;10.570;2023-06-26T02:52:21;9.68;;;8.68;;
14778;SDS011;7481;53.750;10.570;2023-06-26T02:56:43;11.18;;;10.00;;
14778;SDS011;7481;53.750;10.570;2023-06-26T03:01:08;11.88;;;9.32;;
14778;SDS011;7481;53.750;10.570;2023-06-26T03:05:31;16.98;;;9.73;;
14778;SDS011;7481;53.750;10.570;2023-06-26T03:09:53;10.52;;;9.23;;
14778;SDS011;7481;53.750;10.570;2023-06-26T03:14:16;10.60;;;9.50;;
14778;SDS011;7481;53.750;10.570;2023-06-26T03:18:38;10.20;;;9.20;;
14778;SDS011;7481;53.750;10.570;2023-06-26T03:23:01;10.35;;;9.40;;
14778;SDS011;7481;53.750;10.570;2023-06-26T03:27:23;11.50;;;9.18;;
14778;SDS011;7481;53.750;10.570;2023-06-26T03:31:46;11.52;;;10.07;;
14778;SDS011;7481;53.750;10.570;2023-06-26T03:36:08;9.68;;;8.77;;
14778;SDS011;7481;53.750;10.570;2023-06-26T03:40:31;10.43;;;9.40;;
14778;SDS011;7481;53.750;10.570;2023-06-26T03:44:53;12.43;;;9.55;;
14778;SDS011;7481;53.750;10.570;2023-06-26T03:49:16;10.25;;;9.02;;
14778;SDS011;7481;53.750;10.570;2023-06-26T03:53:39;9.73;;;8.77;;
14778;SDS011;7481;53.750;10.570;2023-06-26T03:58:01;10.75;;;9.75;;
14778;SDS011;7481;53.750;10.570;2023-06-26T04:02:24;11.23;;;9.25;;
14778;SDS011;7481;53.750;10.570;2023-06-26T04:06:46;9.23;;;8.32;;
14778;SDS011;7481;53.750;10.570;2023-06-26T04:11:09;9.88;;;8.63;;
14778;SDS011;7481;53.750;10.570;2023-06-26T04:15:31;10.82;;;9.02;;
14778;SDS011;7481;53.750;10.570;2023-06-26T04:19:54;9.85;;;8.90;;
14778;SDS011;7481;53.750;10.570;2023-06-26T04:24:16;11.63;;;9.07;;
14778;SDS011;7481;53.750;10.570;2023-06-26T04:28:39;10.60;;;8.30;;
14778;SDS011;7481;53.750;10.570;2023-06-26T04:33:01;9.88;;;8.55;;
14778;SDS011;7481;53.750;10.570;2023-06-26T04:37:24;9.15;;;8.07;;
14778;SDS011;7481;53.750;10.570;2023-06-26T04:41:46;9.00;;;8.05;;
14778;SDS011;7481;53.750;10.570;2023-06-26T04:46:10;11.10;;;8.60;;
14778;SDS011;7481;53.750;10.570;2023-06-26T04:50:33;10.35;;;9.30;;
14778;SDS011;7481;53.750;10.570;2023-06-26T04:54:55;9.43;;;8.52;;
14778;SDS011;7481;53.750;10.570;2023-06-26T04:59:18;8.80;;;8.02;;
14778;SDS011;7481;53.750;10.570;2023-06-26T05:03:40;9.27;;;8.20;;
14778;SDS011;7481;53.750;10.570;2023-06-26T05:12:37;9.25;;;8.35;;
14778;SDS011;7481;53.750;10.570;2023-06-26T05:17:00;9.48;;;7.78;;
14778;SDS011;7481;53.750;10.570;2023-06-26T05:21:22;8.20;;;7.40;;
14778;SDS011;7481;53.750;10.570;2023-06-26T05:25:45;8.27;;;7.47;;
14778;SDS011;7481;53.750;10.570;2023-06-26T05:30:07;8.32;;;7.53;;
14778;SDS011;7481;53.750;10.570;2023-06-26T05:34:30;11.40;;;8.15;;
14778;SDS011;7481;53.750;10.570;2023-06-26T05:38:54;9.35;;;7.70;;
14778;SDS011;7481;53.750;10.570;2023-06-26T05:43:18;8.57;;;7.72;;
14778;SDS011;7481;53.750;10.570;2023-06-26T05:48:00;8.50;;;7.63;;
14778;SDS011;7481;53.750;10.570;2023-06-26T05:52:22;9.50;;;7.07;;
14778;SDS011;7481;53.750;10.570;2023-06-26T05:56:45;8.48;;;7.63;;
14778;SDS011;7481;53.750;10.570;2023-06-26T06:01:20;7.93;;;7.15;;
14778;SDS011;7481;53.750;10.570;2023-06-26T06:05:43;7.70;;;6.97;;
14778;SDS011;7481;53.750;10.570;2023-06-26T06:10:05;7.85;;;7.10;;
14778;SDS011;7481;53.750;10.570;2023-06-26T06:14:28;10.88;;;6.75;;
14778;SDS011;7481;53.750;10.570;2023-06-26T06:18:50;8.73;;;6.68;;
14778;SDS011;7481;53.750;10.570;2023-06-26T06:23:13;10.48;;;7.13;;
14778;SDS011;7481;53.750;10.570;2023-06-26T06:27:35;6.75;;;6.05;;
14778;SDS011;7481;53.750;10.570;2023-06-26T06:31:58;7.85;;;7.13;;
14778;SDS011;7481;53.750;10.570;2023-06-26T06:36:20;7.63;;;6.70;;
14778;SDS011;7481;53.750;10.570;2023-06-26T06:40:43;7.40;;;6.70;;
14778;SDS011;7481;53.750;10.570;2023-06-26T06:45:05;7.07;;;6.43;;
14778;SDS011;7481;53.750;10.570;2023-06-26T06:49:28;6.57;;;5.97;;
14778;SDS011;7481;53.750;10.570;2023-06-26T06:53:50;7.00;;;6.40;;
14778;SDS011;7481;53.750;10.570;2023-06-26T06:58:13;7.05;;;6.43;;
14778;SDS011;7481;53.750;10.570;2023-06-26T07:02:36;7.55;;;5.95;;
14778;SDS011;7481;53.750;10.570;2023-06-26T07:06:58;10.55;;;6.47;;
14778;SDS011;7481;53.750;10.570;2023-06-26T07:11:21;7.78;;;6.97;;
14778;SDS011;7481;53.750;10.570;2023-06-26T07:15:44;7.43;;;6.35;;
14778;SDS011;7481;53.750;10.570;2023-06-26T07:20:09;6.70;;;5.97;;
14778;SDS011;7481;53.750;10.570;2023-06-26T07:24:36;7.07;;;6.25;;
14778;SDS011;7481;53.750;10.570;2023-06-26T07:28:59;7.97;;;6.55;;
14778;SDS011;7481;53.750;10.570;2023-06-26T07:33:21;7.22;;;6.53;;
14778;SDS011;7481;53.750;10.570;2023-06-26T07:37:44;6.82;;;6.13;;
14778;SDS011;7481;53.750;10.570;2023-06-26T07:42:06;8.25;;;6.72;;
14778;SDS011;7481;53.750;10.570;2023-06-26T07:46:29;6.90;;;6.20;;
14778;SDS011;7481;53.750;10.570;2023-06-26T07:50:51;6.72;;;6.10;;
14778;SDS011;7481;53.750;10.570;2023-06-26T07:55:16;7.00;;;6.40;;
14778;SDS011;7481;53.750;10.570;2023-06-26T07:59:39;6.88;;;6.28;;
14778;SDS011;7481;53.750;10.570;2023-06-26T08:04:01;7.28;;;6.57;;
14778;SDS011;7481;53.750;10.570;2023-06-26T08:08:24;8.05;;;6.47;;
14778;SDS011;7481;53.750;10.570;2023-06-26T08:12:46;8.38;;;6.53;;
14778;SDS011;7481;53.750;10.570;2023-06-26T08:17:11;7.68;;;5.97;;
14778;SDS011;7481;53.750;10.570;2023-06-26T08:21:34;8.40;;;6.50;;
14778;SDS011;7481;53.750;10.570;2023-06-26T08:25:56;6.72;;;5.95;;
14778;SDS011;7481;53.750;10.570;2023-06-26T08:30:20;6.80;;;6.13;;
14778;SDS011;7481;53.750;10.570;2023-06-26T08:34:42;6.80;;;6.20;;
14778;SDS011;7481;53.750;10.570;2023-06-26T08:39:07;6.50;;;5.75;;
14778;SDS011;7481;53.750;10.570;2023-06-26T08:43:30;7.43;;;6.72;;
14778;SDS011;7481;53.750;10.570;2023-06-26T08:47:52;7.32;;;6.60;;
14778;SDS011;7481;53.750;10.570;2023-06-26T08:52:22;6.82;;;6.22;;
14778;SDS011;7481;53.750;10.570;2023-06-26T08:56:44;7.93;;;7.07;;
14778;SDS011;7481;53.750;10.570;2023-06-26T09:01:08;7.95;;;6.60;;
14778;SDS011;7481;53.750;10.570;2023-06-26T09:05:31;9.90;;;6.90;;
14778;SDS011;7481;53.750;10.570;2023-06-26T09:09:54;7.72;;;6.93;;
14778;SDS011;7481;53.750;10.570;2023-06-26T09:14:16;8.85;;;6.22;;
14778;SDS011;7481;53.750;10.570;2023-06-26T09:18:42;8.30;;;6.03;;
14778;SDS011;7481;53.750;10.570;2023-06-26T09:23:05;6.50;;;5.90;;
14778;SDS011;7481;53.750;10.570;2023-06-26T09:27:27;6.90;;;6.30;;
14778;SDS011;7481;53.750;10.570;2023-06-26T09:31:51;8.02;;;6.68;;
14778;SDS011;7481;53.750;10.570;2023-06-26T09:36:20;7.07;;;6.38;;
14778;SDS011;7481;53.750;10.570;2023-06-26T09:40:43;10.57;;;7.10;;
14778;SDS011;7481;53.750;10.570;2023-06-26T09:45:06;7.63;;;6.93;;
14778;SDS011;7481;53.750;10.570;2023-06-26T09:49:29;7.05;;;6.35;;
14778;SDS011;7481;53.750;10.570;2023-06-26T09:53:51;7.85;;;6.93;;
14778;SDS011;7481;53.750;10.570;2023-06-26T09:58:14;7.97;;;7.15;;
14778;SDS011;7481;53.750;10.570;2023-06-26T10:02:38;8.02;;;7.22;;
14778;SDS011;7481;53.750;10.570;2023-06-26T10:07:01;9.68;;;7.53;;
14778;SDS011;7481;53.750;10.570;2023-06-26T10:11:30;9.35;;;8.45;;
14778;SDS011;7481;53.750;10.570;2023-06-26T10:15:55;9.93;;;8.93;;
14778;SDS011;7481;53.750;10.570;2023-06-26T10:20:18;19.38;;;10.63;;
14778;SDS011;7481;53.750;10.570;2023-06-26T10:24:41;16.90;;;11.50;;
14778;SDS011;7481;53.750;10.570;2023-06-26T10:29:03;14.82;;;9.60;;
14778;SDS011;7481;53.750;10.570;2023-06-26T10:33:26;12.32;;;8.43;;
14778;SDS011;7481;53.750;10.570;2023-06-26T10:37:49;11.88;;;8.48;;
14778;SDS011;7481;53.750;10.570;2023-06-26T10:42:12;8.80;;;6.72;;
14778;SDS011;7481;53.750;10.570;2023-06-26T10:46:52;9.60;;;6.93;;
14778;SDS011;7481;53.750;10.570;2023-06-26T10:51:14;8.40;;;6.05;;
14778;SDS011;7481;53.750;10.570;2023-06-26T10:55:37;16.33;;;6.57;;
14778;SDS011;7481;53.750;10.570;2023-06-26T11:00:09;13.82;;;6.97;;
14778;SDS011;7481;53.750;10.570;2023-06-26T11:04:46;12.40;;;7.20;;
14778;SDS011;7481;53.750;10.570;2023-06-26T11:09:09;10.02;;;6.88;;
14778;SDS011;7481;53.750;10.570;2023-06-26T11:13:33;9.93;;;6.55;;
14778;SDS011;7481;53.750;10.570;2023-06-26T11:17:57;10.70;;;7.47;;
14778;SDS011;7481;53.750;10.570;2023-06-26T11:22:20;11.25;;;7.70;;
14778;SDS011;7481;53.750;10.570;2023-06-26T11:26:44;18.60;;;8.43;;
14778;SDS011;7481;53.750;10.570;2023-06-26T11:31:07;11.45;;;8.15;;
14778;SDS011;7481;53.750;10.570;2023-06-26T11:35:31;14.80;;;8.05;;
14778;SDS011;7481;53.750;10.570;2023-06-26T11:39:53;10.38;;;7.88;;
14778;SDS011;7481;53.750;10.570;2023-06-26T11:44:16;10.88;;;8.77;;
14778;SDS011;7481;53.750;10.570;2023-06-26T11:48:41;9.85;;;7.85;;
14778;SDS011;7481;53.750;10.570;2023-06-26T11:53:04;10.73;;;8.25;;
14778;SDS011;7481;53.750;10.570;2023-06-26T11:57:30;12.82;;;9.75;;
14778;SDS011;7481;53.750;10.570;2023-06-26T12:01:52;12.73;;;9.82;;
14778;SDS011;7481;53.750;10.570;2023-06-26T12:06:15;14.30;;;9.82;;
14778;SDS011;7481;53.750;10.570;2023-06-26T12:10:37;13.20;;;10.40;;
14778;SDS011;7481;53.750;10.570;2023-06-26T12:15:00;12.77;;;7.97;;
14778;SDS011;7481;53.750;10.570;2023-06-26T12:19:24;13.38;;;7.50;;
14778;SDS011;7481;53.750;10.570;2023-06-26T12:23:57;8.07;;;4.72;;
14778;SDS011;7481;53.750;10.570;2023-06-26T12:28:22;6.38;;;3.58;;
14778;SDS011;7481;53.750;10.570;2023-06-26T12:32:45;6.95;;;3.42;;
14778;SDS011;7481;53.750;10.570;2023-06-26T12:37:11;9.82;;;3.80;;
14778;SDS011;7481;53.750;10.570;2023-06-26T12:41:35;9.90;;;3.80;;
14778;SDS011;7481;53.750;10.570;2023-06-26T12:45:57;8.10;;;3.25;;
14778;SDS011;7481;53.750;10.570;2023-06-26T12:50:20;8.70;;;2.95;;
14778;SDS011;7481;53.750;10.570;2023-06-26T12:54:42;9.95;;;3.13;;
14778;SDS011;7481;53.750;10.570;2023-06-26T12:59:05;8.95;;;2.90;;
14778;SDS011;7481;53.750;10.570;2023-06-26T13:03:28;11.55;;;3.80;;
14778;SDS011;7481;53.750;10.570;2023-06-26T13:07:51;5.72;;;2.90;;
14778;SDS011;7481;53.750;10.570;2023-06-26T13:12:15;6.53;;;2.40;;
14778;SDS011;7481;53.750;10.570;2023-06-26T13:16:37;8.50;;;3.10;;
14778;SDS011;7481;53.750;10.570;2023-06-26T13:21:00;7.60;;;3.38;;
14778;SDS011;7481;53.750;10.570;2023-06-26T13:25:23;6.80;;;2.80;;
14778;SDS011;7481;53.750;10.570;2023-06-26T13:29:45;8.93;;;2.95;;
14778;SDS011;7481;53.750;10.570;2023-06-26T13:34:08;10.07;;;2.97;;
14778;SDS011;7481;53.750;10.570;2023-06-26T13:38:32;6.82;;;2.90;;
14778;SDS011;7481;53.750;10.570;2023-06-26T13:42:55;5.32;;;2.40;;
14778;SDS011;7481;53.750;10.570;2023-06-26T13:47:18;5.93;;;2.25;;
14778;SDS011;7481;53.750;10.570;2023-06-26T13:51:40;7.05;;;2.60;;
14778;SDS011;7481;53.750;10.570;2023-06-26T13:56:07;6.53;;;2.33;;
14778;SDS011;7481;53.750;10.570;2023-06-26T14:00:29;3.65;;;2.38;;
14778;SDS011;7481;53.750;10.570;2023-06-26T14:04:52;5.57;;;2.47;;
14778;SDS011;7481;53.750;10.570;2023-06-26T14:09:14;6.55;;;2.72;;
14778;SDS011;7481;53.750;10.570;2023-06-26T14:13:37;7.38;;;2.50;;
14778;SDS011;7481;53.750;10.570;2023-06-26T14:17:59;5.20;;;2.45;;
14778;SDS011;7481;53.750;10.570;2023-06-26T14:22:24;8.75;;;2.60;;
14778;SDS011;7481;53.750;10.570;2023-06-26T14:26:47;4.55;;;2.42;;
14778;SDS011;7481;53.750;10.570;2023-06-26T14:31:09;4.65;;;2.30;;
14778;SDS011;7481;53.750;10.570;2023-06-26T14:35:32;6.03;;;2.20;;
14778;SDS011;7481;53.750;10.570;2023-06-26T14:39:55;3.60;;;2.05;;
14778;SDS011;7481;53.750;10.570;2023-06-26T14:44:17;2.78;;;2.03;;
14778;SDS011;7481;53.750;10.570;2023-06-26T14:48:40;4.95;;;2.13;;
14778;SDS011;7481;53.750;10.570;2023-06-26T14:53:03;6.10;;;2.20;;
14778;SDS011;7481;53.750;10.570;2023-06-26T14:57:25;3.88;;;1.73;;
14778;SDS011;7481;53.750;10.570;2023-06-26T15:01:48;5.88;;;2.47;;
14778;SDS011;7481;53.750;10.570;2023-06-26T15:06:11;4.03;;;2.10;;
14778;SDS011;7481;53.750;10.570;2023-06-26T15:10:33;2.38;;;1.83;;
14778;SDS011;7481;53.750;10.570;2023-06-26T15:14:56;5.78;;;2.13;;
14778;SDS011;7481;53.750;10.570;2023-06-26T15:19:18;3.85;;;2.10;;
14778;SDS011;7481;53.750;10.570;2023-06-26T15:23:40;5.22;;;2.10;;
14778;SDS011;7481;53.750;10.570;2023-06-26T15:28:04;4.13;;;1.90;;
14778;SDS011;7481;53.750;10.570;2023-06-26T15:32:26;3.97;;;2.05;;
14778;SDS011;7481;53.750;10.570;2023-06-26T15:36:49;4.68;;;2.60;;
14778;SDS011;7481;53.750;10.570;2023-06-26T15:41:11;4.75;;;2.38;;
14778;SDS011;7481;53.750;10.570;2023-06-26T15:45:34;4.72;;;2.55;;
14778;SDS011;7481;53.750;10.570;2023-06-26T15:49:56;5.72;;;2.50;;
14778;SDS011;7481;53.750;10.570;2023-06-26T15:54:19;4.85;;;2.45;;
14778;SDS011;7481;53.750;10.570;2023-06-26T15:58:41;5.15;;;2.38;;
14778;SDS011;7481;53.750;10.570;2023-06-26T16:03:06;4.75;;;2.10;;
14778;SDS011;7481;53.750;10.570;2023-06-26T16:07:29;9.07;;;2.67;;
14778;SDS011;7481;53.750;10.570;2023-06-26T16:12:07;3.60;;;2.08;;
14778;SDS011;7481;53.750;10.570;2023-06-26T16:16:30;3.45;;;2.08;;
14778;SDS011;7481;53.750;10.570;2023-06-26T16:20:53;4.88;;;2.60;;
14778;SDS011;7481;53.750;10.570;2023-06-26T16:25:15;5.10;;;2.33;;
14778;SDS011;7481;53.750;10.570;2023-06-26T16:29:38;7.40;;;2.63;;
14778;SDS011;7481;53.750;10.570;2023-06-26T16:34:00;5.25;;;2.00;;
14778;SDS011;7481;53.750;10.570;2023-06-26T16:38:23;3.05;;;1.92;;
14778;SDS011;7481;53.750;10.570;2023-06-26T16:42:45;3.22;;;2.10;;
14778;SDS011;7481;53.750;10.570;2023-06-26T16:47:08;5.30;;;1.90;;
14778;SDS011;7481;53.750;10.570;2023-06-26T16:51:31;4.80;;;2.28;;
14778;SDS011;7481;53.750;10.570;2023-06-26T16:55:53;4.47;;;2.47;;
14778;SDS011;7481;53.750;10.570;2023-06-26T17:00:16;4.07;;;2.20;;
14778;SDS011;7481;53.750;10.570;2023-06-26T17:04:38;3.38;;;2.00;;
14778;SDS011;7481;53.750;10.570;2023-06-26T17:09:01;4.00;;;2.25;;
14778;SDS011;7481;53.750;10.570;2023-06-26T17:13:23;3.78;;;2.03;;
14778;SDS011;7481;53.750;10.570;2023-06-26T17:17:48;4.35;;;2.55;;
14778;SDS011;7481;53.750;10.570;2023-06-26T17:22:10;4.45;;;2.20;;
14778;SDS011;7481;53.750;10.570;2023-06-26T17:26:33;5.50;;;2.40;;
14778;SDS011;7481;53.750;10.570;2023-06-26T17:30:55;5.78;;;2.42;;
14778;SDS011;7481;53.750;10.570;2023-06-26T17:35:18;7.28;;;2.83;;
14778;SDS011;7481;53.750;10.570;2023-06-26T17:39:40;8.05;;;2.90;;
14778;SDS011;7481;53.750;10.570;2023-06-26T17:44:03;4.80;;;2.25;;
14778;SDS011;7481;53.750;10.570;2023-06-26T17:48:25;6.38;;;2.67;;
14778;SDS011;7481;53.750;10.570;2023-06-26T17:52:48;6.22;;;2.72;;
14778;SDS011;7481;53.750;10.570;2023-06-26T17:57:10;4.57;;;2.35;;
14778;SDS011;7481;53.750;10.570;2023-06-26T18:01:33;6.25;;;2.70;;
14778;SDS011;7481;53.750;10.570;2023-06-26T18:05:55;6.00;;;2.75;;
14778;SDS011;7481;53.750;10.570;2023-06-26T18:10:18;4.13;;;2.45;;
14778;SDS011;7481;53.750;10.570;2023-06-26T18:14:40;4.70;;;2.72;;
14778;SDS011;7481;53.750;10.570;2023-06-26T18:19:03;5.00;;;2.75;;
14778;SDS011;7481;53.750;10.570;2023-06-26T18:23:25;3.92;;;2.50;;
14778;SDS011;7481;53.750;10.570;2023-06-26T18:27:47;7.93;;;2.83;;
14778;SDS011;7481;53.750;10.570;2023-06-26T18:32:10;6.90;;;3.10;;
14778;SDS011;7481;53.750;10.570;2023-06-26T18:36:33;8.00;;;2.85;;
14778;SDS011;7481;53.750;10.570;2023-06-26T18:40:55;9.82;;;2.95;;
14778;SDS011;7481;53.750;10.570;2023-06-26T18:45:18;10.25;;;2.90;;
14778;SDS011;7481;53.750;10.570;2023-06-26T18:49:41;6.05;;;2.70;;
14778;SDS011;7481;53.750;10.570;2023-06-26T18:54:04;8.15;;;2.67;;
14778;SDS011;7481;53.750;10.570;2023-06-26T18:58:26;4.47;;;2.50;;
14778;SDS011;7481;53.750;10.570;2023-06-26T19:02:49;6.22;;;2.60;;
14778;SDS011;7481;53.750;10.570;2023-06-26T19:07:11;6.82;;;2.55;;
14778;SDS011;7481;53.750;10.570;2023-06-26T19:11:34;4.30;;;2.00;;
14778;SDS011;7481;53.750;10.570;2023-06-26T19:15:56;6.53;;;2.40;;
14778;SDS011;7481;53.750;10.570;2023-06-26T19:20:19;6.00;;;2.30;;
14778;SDS011;7481;53.750;10.570;2023-06-26T19:24:41;6.78;;;2.45;;
14778;SDS011;7481;53.750;10.570;2023-06-26T19:29:04;8.52;;;2.10;;
14778;SDS011;7481;53.750;10.570;2023-06-26T19:33:27;6.10;;;2.20;;
14778;SDS011;7481;53.750;10.570;2023-06-26T19:37:52;5.18;;;2.40;;
14778;SDS011;7481;53.750;10.570;2023-06-26T19:42:26;4.30;;;1.98;;
14778;SDS011;7481;53.750;10.570;2023-06-26T19:46:49;8.00;;;2.55;;
14778;SDS011;7481;53.750;10.570;2023-06-26T19:51:11;7.40;;;2.50;;
14778;SDS011;7481;53.750;10.570;2023-06-26T19:55:34;6.53;;;2.33;;
14778;SDS011;7481;53.750;10.570;2023-06-26T19:59:56;6.63;;;2.45;;
14778;SDS011;7481;53.750;10.570;2023-06-26T20:04:18;5.53;;;2.30;;
14778;SDS011;7481;53.750;10.570;2023-06-26T20:08:41;9.05;;;2.70;;
14778;SDS011;7481;53.750;10.570;2023-06-26T20:13:03;8.88;;;3.08;;
14778;SDS011;7481;53.750;10.570;2023-06-26T20:17:26;7.77;;;3.10;;
14778;SDS011;7481;53.750;10.570;2023-06-26T20:21:48;6.57;;;2.50;;
14778;SDS011;7481;53.750;10.570;2023-06-26T20:26:11;6.50;;;2.40;;
14778;SDS011;7481;53.750;10.570;2023-06-26T20:30:35;6.13;;;2.78;;
14778;SDS011;7481;53.750;10.570;2023-06-26T20:34:58;7.07;;;2.58;;
14778;SDS011;7481;53.750;10.570;2023-06-26T20:39:20;5.10;;;2.42;;
14778;SDS011;7481;53.750;10.570;2023-06-26T20:43:43;10.05;;;2.58;;
14778;SDS011;7481;53.750;10.570;2023-06-26T20:48:05;7.40;;;2.67;;
14778;SDS011;7481;53.750;10.570;2023-06-26T20:52:28;6.07;;;2.72;;
14778;SDS011;7481;53.750;10.570;2023-06-26T20:56:52;8.60;;;3.00;;
14778;SDS011;7481;53.750;10.570;2023-06-26T21:01:14;5.97;;;2.70;;
14778;SDS011;7481;53.750;10.570;2023-06-26T21:05:37;6.65;;;2.90;;
14778;SDS011;7481;53.750;10.570;2023-06-26T21:10:00;7.07;;;2.80;;
14778;SDS011;7481;53.750;10.570;2023-06-26T21:14:22;10.32;;;2.95;;
14778;SDS011;7481;53.750;10.570;2023-06-26T21:18:45;10.05;;;2.78;;
14778;SDS011;7481;53.750;10.570;2023-06-26T21:23:07;11.10;;;2.78;;
14778;SDS011;7481;53.750;10.570;2023-06-26T21:27:30;11.90;;;3.30;;
14778;SDS011;7481;53.750;10.570;2023-06-26T21:31:52;9.87;;;3.27;;
14778;SDS011;7481;53.750;10.570;2023-06-26T21:36:15;10.60;;;3.38;;
14778;SDS011;7481;53.750;10.570;2023-06-26T21:40:37;14.70;;;3.70;;
14778;SDS011;7481;53.750;10.570;2023-06-26T21:45:00;12.32;;;3.88;;
14778;SDS011;7481;53.750;10.570;2023-06-26T21:49:22;10.32;;;3.58;;
14778;SDS011;7481;53.750;10.570;2023-06-26T21:53:45;10.68;;;3.58;;
14778;SDS011;7481;53.750;10.570;2023-06-26T21:58:07;9.60;;;3.63;;
14778;SDS011;7481;53.750;10.570;2023-06-26T22:02:30;10.88;;;3.95;;
14778;SDS011;7481;53.750;10.570;2023-06-26T22:06:52;11.02;;;4.05;;
14778;SDS011;7481;53.750;10.570;2023-06-26T22:11:16;10.03;;;3.93;;
14778;SDS011;7481;53.750;10.570;2023-06-26T22:15:39;13.27;;;4.63;;
14778;SDS011;7481;53.750;10.570;2023-06-26T22:20:02;10.85;;;4.22;;
14778;SDS011;7481;53.750;10.570;2023-06-26T22:24:25;11.33;;;4.07;;
14778;SDS011;7481;53.750;10.570;2023-06-26T22:28:47;9.80;;;4.17;;
14778;SDS011;7481;53.750;10.570;2023-06-26T22:33:10;10.90;;;3.43;;
14778;SDS011;7481;53.750;10.570;2023-06-26T22:37:32;8.30;;;3.67;;
14778;SDS011;7481;53.750;10.570;2023-06-26T22:41:54;12.70;;;4.40;;
14778;SDS011;7481;53.750;10.570;2023-06-26T22:46:17;12.60;;;3.57;;
14778;SDS011;7481;53.750;10.570;2023-06-26T22:50:39;8.32;;;3.50;;
14778;SDS011;7481;53.750;10.570;2023-06-26T22:55:02;11.07;;;3.40;;
14778;SDS011;7481;53.750;10.570;2023-06-26T22:59:27;11.57;;;3.80;;
14778;SDS011;7481;53.750;10.570;2023-06-26T23:04:14;7.05;;;3.33;;
14778;SDS011;7481;53.750;10.570;2023-06-26T23:08:36;12.33;;;3.90;;
14778;SDS011;7481;53.750;10.570;2023-06-26T23:12:58;9.77;;;3.75;;
14778;SDS011;7481;53.750;10.570;2023-06-26T23:17:21;10.35;;;3.97;;
14778;SDS011;7481;53.750;10.570;2023-06-26T23:21:43;5.97;;;3.70;;
14778;SDS011;7481;53.750;10.570;2023-06-26T23:26:06;10.50;;;3.67;;
14778;SDS011;7481;53.750;10.570;2023-06-26T23:30:29;9.30;;;4.20;;
14778;SDS011;7481;53.750;10.570;2023-06-26T23:34:52;8.82;;;4.22;;
14778;SDS011;7481;53.750;10.570;2023-06-26T23:39:17;9.03;;;3.93;;
14778;SDS011;7481;53.750;10.570;2023-06-26T23:43:40;11.93;;;4.20;;
14778;SDS011;7481;53.750;10.570;2023-06-26T23:48:02;8.07;;;4.07;;
14778;SDS011;7481;53.750;10.570;2023-06-26T23:52:25;11.33;;;4.07;;
14778;SDS011;7481;53.750;10.570;2023-06-26T23:56:48;10.50;;;4.37;;
